RYR8PE EPKK-ESSA
Flight info
| Callsign | RYR8PE |
|---|---|
| Flight time | N/A |
| Altitude | 34000 |
| Route | NAVUR DCT OVBOR DCT GRUDA DCT PENOR DCT ARMOD/N0443F350 Z228 NILUG |
| Aircraft | B738/M-SDGIJ1LRWY/SB1 |
Departure
| Time | 2026-05-06 14:03 |
|---|---|
| Airport | Kraków John Paul II International Airport (EPKK) |
Arrival
| Time | N/A |
|---|---|
| Airport | Stockholm-Arlanda Airport (ESSA) |
| Time | Latitude | Longitude | Altitude | Speed | Heading |
|---|---|---|---|---|---|
| 2026-05-06 13:57 | 50.07683 | 19.80078 | 802 ft | 0 kts | 347° |
| 2026-05-06 13:59 | 50.07684 | 19.80078 | 802 ft | 1 kts | 347° |
| 2026-05-06 14:00 | 50.07728 | 19.80080 | 802 ft | 9 kts | 33° |
| 2026-05-06 14:00 | 50.07755 | 19.80189 | 802 ft | 11 kts | 79° |
| 2026-05-06 14:00 | 50.07773 | 19.80303 | 802 ft | 10 kts | 65° |
| 2026-05-06 14:00 | 50.07824 | 19.80344 | 802 ft | 7 kts | 358° |
| 2026-05-06 14:01 | 50.07876 | 19.80330 | 802 ft | 8 kts | 348° |
| 2026-05-06 14:01 | 50.07951 | 19.80303 | 802 ft | 12 kts | 346° |
| 2026-05-06 14:01 | 50.08014 | 19.80252 | 803 ft | 7 kts | 285° |
| 2026-05-06 14:01 | 50.08007 | 19.80170 | 803 ft | 10 kts | 258° |
| 2026-05-06 14:02 | 50.07958 | 19.79823 | 803 ft | 64 kts | 257° |
| 2026-05-06 14:02 | 50.07819 | 19.78824 | 803 ft | 122 kts | 258° |
| 2026-05-06 14:02 | 50.07601 | 19.77271 | 804 ft | 169 kts | 258° |
| 2026-05-06 14:02 | 50.07345 | 19.75411 | 1232 ft | 178 kts | 258° |
| 2026-05-06 14:03 | 50.07114 | 19.73561 | 1953 ft | 175 kts | 257° |
| 2026-05-06 14:03 | 50.06880 | 19.71769 | 2589 ft | 173 kts | 256° |
| 2026-05-06 14:03 | 50.06600 | 19.69852 | 2899 ft | 189 kts | 256° |
| 2026-05-06 14:03 | 50.06320 | 19.67797 | 3301 ft | 200 kts | 261° |
| 2026-05-06 14:04 | 50.06421 | 19.65570 | 3627 ft | 219 kts | 289° |
| 2026-05-06 14:04 | 50.07369 | 19.63608 | 3905 ft | 243 kts | 322° |
| 2026-05-06 14:04 | 50.08953 | 19.62522 | 4286 ft | 260 kts | 343° |
| 2026-05-06 14:04 | 50.10781 | 19.61899 | 4669 ft | 275 kts | 347° |
| 2026-05-06 14:05 | 50.12723 | 19.61605 | 5150 ft | 285 kts | 2° |
| 2026-05-06 14:05 | 50.14650 | 19.62262 | 5764 ft | 290 kts | 24° |
| 2026-05-06 14:05 | 50.16319 | 19.63968 | 6401 ft | 292 kts | 41° |
| 2026-05-06 14:05 | 50.17844 | 19.66060 | 7012 ft | 296 kts | 43° |
| 2026-05-06 14:06 | 50.19373 | 19.68233 | 7670 ft | 299 kts | 43° |
| 2026-05-06 14:06 | 50.20920 | 19.70405 | 8367 ft | 301 kts | 43° |
| 2026-05-06 14:06 | 50.22493 | 19.72574 | 9045 ft | 305 kts | 42° |
| 2026-05-06 14:06 | 50.24241 | 19.74457 | 9732 ft | 309 kts | 22° |
| 2026-05-06 14:07 | 50.26335 | 19.75037 | 10306 ft | 313 kts | 356° |
| 2026-05-06 14:07 | 50.28535 | 19.74939 | 10669 ft | 329 kts | 0° |
| 2026-05-06 14:07 | 50.30882 | 19.75283 | 11071 ft | 344 kts | 7° |
| 2026-05-06 14:07 | 50.33281 | 19.75896 | 11448 ft | 359 kts | 8° |
| 2026-05-06 14:08 | 50.35787 | 19.76581 | 11829 ft | 374 kts | 8° |
| 2026-05-06 14:08 | 50.38401 | 19.77261 | 12267 ft | 386 kts | 7° |
| 2026-05-06 14:08 | 50.41042 | 19.77902 | 12976 ft | 390 kts | 6° |
| 2026-05-06 14:08 | 50.43737 | 19.78515 | 13711 ft | 393 kts | 6° |
| 2026-05-06 14:09 | 50.46446 | 19.79109 | 14401 ft | 398 kts | 6° |
| 2026-05-06 14:09 | 50.49184 | 19.79712 | 15080 ft | 403 kts | 6° |
| 2026-05-06 14:09 | 50.51049 | 19.80117 | 15570 ft | 406 kts | 6° |
| 2026-05-06 14:09 | 50.51408 | 19.80195 | 15659 ft | 406 kts | 6° |
| 2026-05-06 14:10 | 50.53264 | 19.80594 | 16083 ft | 410 kts | 5° |
| 2026-05-06 14:10 | 50.56074 | 19.81193 | 16777 ft | 414 kts | 6° |
| 2026-05-06 14:10 | 50.58972 | 19.81811 | 17412 ft | 419 kts | 6° |
| 2026-05-06 14:10 | 50.61847 | 19.82427 | 18058 ft | 423 kts | 5° |
| 2026-05-06 14:11 | 50.64774 | 19.83059 | 18700 ft | 428 kts | 5° |
| 2026-05-06 14:11 | 50.67715 | 19.83699 | 19410 ft | 430 kts | 5° |
| 2026-05-06 14:11 | 50.70677 | 19.84344 | 20057 ft | 434 kts | 5° |
| 2026-05-06 14:11 | 50.73672 | 19.84999 | 20735 ft | 436 kts | 5° |
| 2026-05-06 14:12 | 50.76675 | 19.85657 | 21316 ft | 441 kts | 5° |
| 2026-05-06 14:12 | 50.79737 | 19.86329 | 21949 ft | 444 kts | 5° |
| 2026-05-06 14:12 | 50.82783 | 19.86999 | 22498 ft | 448 kts | 5° |
| 2026-05-06 14:12 | 50.85885 | 19.87682 | 23108 ft | 451 kts | 5° |
| 2026-05-06 14:13 | 50.88983 | 19.88364 | 23682 ft | 455 kts | 5° |
| 2026-05-06 14:13 | 50.92113 | 19.89054 | 24228 ft | 458 kts | 5° |
| 2026-05-06 14:13 | 50.95281 | 19.89757 | 24730 ft | 463 kts | 6° |
| 2026-05-06 14:13 | 50.98441 | 19.90696 | 25222 ft | 469 kts | 11° |
| 2026-05-06 14:14 | 51.01585 | 19.92275 | 25702 ft | 475 kts | 20° |
| 2026-05-06 14:14 | 51.04523 | 19.94569 | 26221 ft | 480 kts | 28° |
| 2026-05-06 14:14 | 51.07362 | 19.97421 | 26643 ft | 485 kts | 32° |
| 2026-05-06 14:14 | 51.10201 | 20.00343 | 27051 ft | 489 kts | 28° |
| 2026-05-06 14:15 | 51.13234 | 20.02784 | 27523 ft | 488 kts | 20° |
| 2026-05-06 14:15 | 51.16439 | 20.04480 | 28000 ft | 486 kts | 11° |
| 2026-05-06 14:15 | 51.19734 | 20.05369 | 28571 ft | 480 kts | 1° |
| 2026-05-06 14:15 | 51.23011 | 20.05438 | 29252 ft | 471 kts | 352° |
| 2026-05-06 14:16 | 51.26215 | 20.04715 | 29845 ft | 462 kts | 342° |
| 2026-05-06 14:16 | 51.29250 | 20.03304 | 30415 ft | 455 kts | 335° |
| 2026-05-06 14:16 | 51.32169 | 20.01376 | 30821 ft | 452 kts | 328° |
| 2026-05-06 14:16 | 51.34938 | 19.98979 | 31204 ft | 450 kts | 324° |
| 2026-05-06 14:17 | 51.37753 | 19.96626 | 31633 ft | 454 kts | 330° |
| 2026-05-06 14:17 | 51.40683 | 19.94686 | 32069 ft | 456 kts | 334° |
| 2026-05-06 14:17 | 51.43724 | 19.92912 | 32517 ft | 456 kts | 335° |
| 2026-05-06 14:17 | 51.46731 | 19.91216 | 32918 ft | 457 kts | 335° |
| 2026-05-06 14:18 | 51.49704 | 19.89514 | 33345 ft | 455 kts | 334° |
| 2026-05-06 14:18 | 51.52701 | 19.87638 | 33747 ft | 453 kts | 333° |
| 2026-05-06 14:18 | 51.58574 | 19.83738 | 33767 ft | 453 kts | 332° |
| 2026-05-06 14:19 | 51.64187 | 19.79347 | 33769 ft | 451 kts | 330° |
| 2026-05-06 14:19 | 51.70088 | 19.75806 | 33766 ft | 457 kts | 337° |
| 2026-05-06 14:20 | 51.76171 | 19.72833 | 33765 ft | 458 kts | 338° |
| 2026-05-06 14:20 | 51.82260 | 19.69878 | 33764 ft | 460 kts | 338° |
| 2026-05-06 14:21 | 51.88411 | 19.66798 | 33975 ft | 469 kts | 337° |
| 2026-05-06 14:21 | 51.91509 | 19.65220 | 34474 ft | 465 kts | 336° |
| 2026-05-06 14:21 | 51.94591 | 19.63642 | 34937 ft | 462 kts | 336° |
| 2026-05-06 14:22 | 51.97644 | 19.62066 | 35292 ft | 459 kts | 336° |
| 2026-05-06 14:22 | 52.00695 | 19.60482 | 35645 ft | 457 kts | 337° |
| 2026-05-06 14:22 | 52.03711 | 19.58907 | 35929 ft | 456 kts | 337° |
| 2026-05-06 14:22 | 52.06732 | 19.57323 | 36168 ft | 456 kts | 337° |
| 2026-05-06 14:23 | 52.09747 | 19.55737 | 36419 ft | 456 kts | 337° |
| 2026-05-06 14:23 | 52.12767 | 19.54143 | 36617 ft | 456 kts | 337° |
| 2026-05-06 14:23 | 52.15792 | 19.52545 | 36867 ft | 456 kts | 337° |
| 2026-05-06 14:23 | 52.18788 | 19.50962 | 37155 ft | 455 kts | 337° |
| 2026-05-06 14:24 | 52.21767 | 19.49386 | 37400 ft | 454 kts | 337° |
| 2026-05-06 14:24 | 52.24779 | 19.47791 | 37617 ft | 454 kts | 337° |
| 2026-05-06 14:24 | 52.27795 | 19.46191 | 37735 ft | 456 kts | 337° |
| 2026-05-06 14:24 | 52.30810 | 19.44586 | 37741 ft | 457 kts | 337° |
| 2026-05-06 14:25 | 52.36829 | 19.41380 | 37734 ft | 455 kts | 337° |
| 2026-05-06 14:25 | 52.42839 | 19.38169 | 37730 ft | 457 kts | 337° |
| 2026-05-06 14:26 | 52.48865 | 19.34940 | 37724 ft | 456 kts | 336° |
| 2026-05-06 14:26 | 52.54865 | 19.31719 | 37720 ft | 455 kts | 336° |
| 2026-05-06 14:27 | 52.60858 | 19.28490 | 37718 ft | 456 kts | 336° |
| 2026-05-06 14:27 | 52.66863 | 19.25245 | 37721 ft | 456 kts | 336° |
| 2026-05-06 14:28 | 52.72909 | 19.21970 | 37719 ft | 456 kts | 336° |
| 2026-05-06 14:28 | 52.78902 | 19.18713 | 37708 ft | 456 kts | 336° |
| 2026-05-06 14:29 | 52.84935 | 19.15425 | 37721 ft | 456 kts | 336° |
| 2026-05-06 14:29 | 52.90944 | 19.12140 | 37727 ft | 457 kts | 336° |